Time;durP1;ratioP1;P1;durP2;ratioP2;P2;SDS_P1;SDS_P2;PMS_P1;PMS_P2;Temp;Humidity;BMP_temperature;BMP_pressure;BME280_temperature;BME280_humidity;BME280_pressure;Samples;Min_cycle;Max_cycle;Signal;HPM_P1;HPM_P2
2024/01/23 00:00:07;;;;;;;15.43;3.53;;;;;;;9.21;75.87;101061.38;5049334;28;20037;-64
2024/01/23 00:02:32;;;;;;;16.27;3.20;;;;;;;9.25;75.49;101062.25;5050030;28;20116;-63
2024/01/23 00:04:58;;;;;;;9.35;2.72;;;;;;;9.13;76.69;101097.47;5049692;28;20112;-63
2024/01/23 00:07:23;;;;;;;17.55;3.72;;;;;;;9.23;75.24;101082.88;5049656;28;20040;-63
2024/01/23 00:09:48;;;;;;;13.05;2.50;;;;;;;9.22;75.33;101095.78;5051654;28;20048;-64
2024/01/23 00:12:14;;;;;;;19.63;3.25;;;;;;;9.14;76.62;101101.75;5052353;28;20051;-63
2024/01/23 00:14:39;;;;;;;20.25;3.13;;;;;;;9.18;76.03;101104.34;5049219;28;20033;-63
2024/01/23 00:17:04;;;;;;;16.30;3.13;;;;;;;9.07;76.83;101117.22;5055381;28;20021;-63
2024/01/23 00:19:30;;;;;;;12.25;3.20;;;;;;;9.13;77.13;101107.78;5055993;28;20547;-63
2024/01/23 00:21:55;;;;;;;12.55;2.85;;;;;;;9.12;77.08;101113.78;5049469;28;20522;-63
2024/01/23 00:24:20;;;;;;;15.65;2.70;;;;;;;9.09;77.48;101102.59;5049069;28;20033;-63
2024/01/23 00:26:46;;;;;;;17.63;3.28;;;;;;;9.00;77.50;101120.63;5047717;28;20052;-63
2024/01/23 00:29:11;;;;;;;12.75;3.22;;;;;;;8.95;77.98;101127.50;5031140;28;20052;-63
2024/01/23 00:31:39;;;;;;;16.42;3.28;;;;;;;9.05;77.01;101109.47;5049838;28;20031;-65
2024/01/23 00:34:04;;;;;;;14.35;2.80;;;;;;;9.02;76.95;101127.50;5048858;28;20025;-63
2024/01/23 00:36:30;;;;;;;20.40;3.13;;;;;;;9.08;76.40;101124.94;5049181;28;20040;-63
2024/01/23 00:38:55;;;;;;;17.58;3.38;;;;;;;9.12;76.91;101123.25;5049107;28;20125;-63
2024/01/23 00:41:20;;;;;;;14.20;3.05;;;;;;;9.11;76.80;101144.72;5048632;28;20071;-63
2024/01/23 00:43:46;;;;;;;18.95;3.03;;;;;;;9.18;76.31;101159.38;5049852;28;20063;-63
2024/01/23 00:46:11;;;;;;;16.50;3.28;;;;;;;9.26;76.52;101162.00;5048905;28;20033;-64
2024/01/23 00:48:36;;;;;;;18.88;3.63;;;;;;;9.32;76.15;101156.81;5048912;28;20562;-63
2024/01/23 00:51:02;;;;;;;17.58;3.15;;;;;;;9.38;76.20;101152.53;5048608;28;20032;-63
2024/01/23 00:53:27;;;;;;;17.25;3.80;;;;;;;9.28;76.82;101163.72;5049667;28;20033;-63
2024/01/23 00:55:53;;;;;;;15.98;3.58;;;;;;;9.15;77.04;101195.47;5048661;28;20110;-63
2024/01/23 00:58:18;;;;;;;10.10;2.92;;;;;;;9.11;77.53;101202.31;5049064;28;20025;-63
2024/01/23 01:00:44;;;;;;;14.00;3.45;;;;;;;9.08;77.36;101181.69;5048368;28;20032;-63
2024/01/23 01:03:10;;;;;;;19.60;3.35;;;;;;;9.10;77.17;101198.03;5048502;28;20031;-63
2024/01/23 01:05:36;;;;;;;17.02;3.20;;;;;;;9.05;77.58;101198.88;5047864;28;20032;-63
2024/01/23 01:08:01;;;;;;;16.48;3.88;;;;;;;8.96;78.53;101211.72;5048487;28;20025;-64
2024/01/23 01:10:26;;;;;;;18.35;3.38;;;;;;;8.85;79.02;101237.41;5050356;28;20048;-63
2024/01/23 01:12:53;;;;;;;20.20;2.90;;;;;;;8.90;79.07;101235.72;5050125;28;20585;-63
2024/01/23 01:15:18;;;;;;;22.92;3.60;;;;;;;8.88;79.88;101245.19;5048938;28;20044;-63
2024/01/23 01:17:44;;;;;;;19.85;3.00;;;;;;;8.90;79.26;101240.88;5049083;28;20033;-63
2024/01/23 01:20:10;;;;;;;16.30;3.40;;;;;;;8.91;79.63;101254.63;5053997;28;20021;-68
2024/01/23 01:22:35;;;;;;;14.88;2.92;;;;;;;8.93;79.06;101274.41;5048607;28;20098;-68
2024/01/23 01:25:01;;;;;;;25.42;5.05;;;;;;;8.94;80.77;101306.22;5046593;28;20499;-68
2024/01/23 01:27:27;;;;;;;16.05;4.53;;;;;;;8.79;84.49;101371.41;5048423;28;20025;-68
2024/01/23 01:29:52;;;;;;;20.33;4.13;;;;;;;8.58;87.00;101415.03;5044723;28;20558;-64
2024/01/23 01:32:18;;;;;;;17.85;3.60;;;;;;;8.43;89.26;101443.19;5047996;28;20039;-64
2024/01/23 01:34:43;;;;;;;21.00;3.50;;;;;;;8.36;89.15;101424.25;5049553;28;20103;-64
2024/01/23 01:37:08;;;;;;;15.88;3.20;;;;;;;8.34;88.52;101420.78;5047351;28;20033;-64
2024/01/23 01:39:34;;;;;;;19.55;3.47;;;;;;;8.31;90.91;101450.78;5048372;28;20036;-65
2024/01/23 01:41:59;;;;;;;19.80;3.72;;;;;;;8.12;94.04;101484.91;5048114;28;20025;-64
2024/01/23 01:44:24;;;;;;;23.85;3.80;;;;;;;7.86;97.33;101462.22;5048028;28;20028;-65
2024/01/23 01:46:51;;;;;;;23.95;3.65;;;;;;;7.72;96.32;101437.16;5049781;28;20123;-64
2024/01/23 01:49:17;;;;;;;17.58;4.07;;;;;;;7.66;97.51;101419.94;5030702;28;20084;-65
2024/01/23 01:51:43;;;;;;;19.60;3.80;;;;;;;7.55;99.17;101421.50;5030859;28;20029;-64
2024/01/23 01:54:08;;;;;;;20.98;4.88;;;;;;;7.46;98.95;101429.06;5044236;28;20037;-64
2024/01/23 01:56:34;;;;;;;16.50;3.70;;;;;;;7.35;100.00;101433.19;5045662;28;20227;-64
2024/01/23 01:59:00;;;;;;;27.92;4.03;;;;;;;7.45;98.74;101422.19;5046184;28;20060;-64
2024/01/23 02:01:27;;;;;;;23.48;3.22;;;;;;;7.49;97.89;101410.25;5028265;28;20057;-63
2024/01/23 02:03:56;;;;;;;20.70;4.40;;;;;;;7.54;97.77;101414.59;5044446;28;20420;-64
2024/01/23 02:06:22;;;;;;;22.30;3.38;;;;;;;7.55;96.94;101410.34;5025715;28;20045;-63
2024/01/23 02:08:49;;;;;;;26.77;4.40;;;;;;;7.43;97.28;101417.03;5035380;28;20721;-64
2024/01/23 02:11:14;;;;;;;19.73;3.45;;;;;;;7.49;96.26;101410.25;5047534;28;20034;-64
2024/01/23 02:13:40;;;;;;;24.90;3.85;;;;;;;7.56;93.92;101399.22;5022496;28;20030;-63
2024/01/23 02:16:07;;;;;;;16.23;3.97;;;;;;;7.76;91.30;101374.59;5046071;28;20066;-63
2024/01/23 02:18:32;;;;;;;18.73;3.95;;;;;;;7.76;91.92;101388.34;5046431;28;20052;-63
2024/01/23 02:20:58;;;;;;;26.00;3.65;;;;;;;7.77;90.29;101377.19;5047321;28;20079;-64
2024/01/23 02:23:30;;;;;;;19.65;3.88;;;;;;;7.83;89.64;101376.41;5047468;28;20039;-63
2024/01/23 02:25:56;;;;;;;27.95;3.72;;;;;;;7.76;90.44;101400.34;5045578;28;20035;-63
2024/01/23 02:28:21;;;;;;;19.27;3.65;;;;;;;7.82;89.61;101393.56;5027729;28;20116;-63
2024/01/23 02:30:46;;;;;;;16.98;3.97;;;;;;;7.80;89.34;101402.97;5027542;28;20031;-63
2024/01/23 02:33:13;;;;;;;18.42;4.03;;;;;;;7.94;88.16;101395.44;5039924;28;20029;-63
2024/01/23 02:35:39;;;;;;;19.10;3.45;;;;;;;7.96;88.08;101409.16;5047525;28;20060;-64
2024/01/23 02:38:04;;;;;;;15.90;4.53;;;;;;;7.83;87.71;101413.28;5035680;28;20100;-64
2024/01/23 02:40:30;;;;;;;17.92;3.10;;;;;;;7.78;87.65;101427.81;5047900;28;20032;-64
2024/01/23 02:42:55;;;;;;;13.38;2.90;;;;;;;7.72;87.96;101443.16;5059359;28;20020;-64
2024/01/23 02:45:21;;;;;;;24.08;3.97;;;;;;;7.79;87.40;101429.56;5054612;28;20028;-63
2024/01/23 02:47:46;;;;;;;14.18;3.58;;;;;;;7.73;86.91;101451.75;5046139;28;20033;-64
2024/01/23 02:50:12;;;;;;;28.83;4.20;;;;;;;7.73;87.80;101464.63;5035113;28;20029;-64
2024/01/23 02:52:37;;;;;;;15.07;3.45;;;;;;;7.79;86.92;101457.88;5058681;28;20181;-63
2024/01/23 02:55:04;;;;;;;29.75;4.05;;;;;;;7.97;85.90;101455.53;5035506;28;20378;-64
2024/01/23 02:57:29;;;;;;;21.50;3.28;;;;;;;7.83;86.41;101467.34;5033939;28;20053;-63
2024/01/23 02:59:55;;;;;;;33.17;5.10;;;;;;;7.83;86.54;101481.94;5042200;28;20513;-64
2024/01/23 03:02:22;;;;;;;16.60;3.45;;;;;;;7.82;86.48;101481.06;5050019;28;20547;-63
2024/01/23 03:04:48;;;;;;;20.35;3.78;;;;;;;7.82;86.11;101483.66;5034641;28;20377;-64
2024/01/23 03:07:14;;;;;;;17.67;3.63;;;;;;;7.95;84.93;101456.38;5032980;28;20128;-64
2024/01/23 03:09:39;;;;;;;20.90;3.60;;;;;;;7.90;85.77;101476.00;5048457;28;20551;-64
2024/01/23 03:12:22;;;;;;;21.17;3.80;;;;;;;7.78;86.57;101515.31;5035785;28;20030;-64
2024/01/23 03:14:48;;;;;;;17.02;3.38;;;;;;;7.86;86.14;101495.69;5042017;28;20480;-63
2024/01/23 03:17:15;;;;;;;17.23;3.63;;;;;;;7.91;85.54;101491.50;5053233;28;20511;-64
2024/01/23 03:19:42;;;;;;;17.38;3.53;;;;;;;7.94;85.11;101495.81;5060836;28;20036;-64
2024/01/23 03:22:07;;;;;;;17.25;3.22;;;;;;;7.95;84.55;101495.81;5053676;28;20025;-64
2024/01/23 03:24:33;;;;;;;18.13;3.78;;;;;;;7.96;85.31;101489.84;5053913;28;20122;-63
2024/01/23 03:26:59;;;;;;;20.23;4.32;;;;;;;7.92;85.20;101492.38;5041259;28;20033;-64
2024/01/23 03:29:25;;;;;;;19.40;3.95;;;;;;;7.99;83.67;101483.84;5037177;28;20361;-64
2024/01/23 03:31:52;;;;;;;16.90;3.08;;;;;;;8.08;83.21;101491.72;5054340;28;20024;-64
2024/01/23 03:34:19;;;;;;;17.98;3.50;;;;;;;8.04;83.33;101495.06;5054649;28;20112;-63
2024/01/23 03:36:45;;;;;;;18.27;3.67;;;;;;;8.07;82.98;101481.41;5037859;28;20036;-64
2024/01/23 03:39:10;;;;;;;14.27;3.35;;;;;;;8.04;83.27;101489.09;5044012;28;20403;-65
2024/01/23 03:41:37;;;;;;;25.08;3.92;;;;;;;8.00;83.19;101499.34;5047528;28;20475;-64
2024/01/23 03:44:05;;;;;;;15.13;3.03;;;;;;;7.98;83.29;101507.91;5033253;28;20040;-64
2024/01/23 03:46:31;;;;;;;20.77;3.90;;;;;;;7.95;83.13;101513.00;5051790;28;20074;-64
2024/01/23 03:48:56;;;;;;;21.27;4.35;;;;;;;7.96;83.46;101515.59;5032640;28;20504;-64
2024/01/23 03:51:21;;;;;;;18.13;3.72;;;;;;;8.03;82.92;101503.66;5030117;28;20038;-64
2024/01/23 03:53:47;;;;;;;16.30;3.28;;;;;;;8.02;82.63;101513.09;5044739;28;20038;-64
2024/01/23 03:56:12;;;;;;;15.68;3.47;;;;;;;8.00;83.36;101513.91;5046926;28;20039;-64
2024/01/23 03:58:37;;;;;;;19.08;4.05;;;;;;;8.04;82.76;101507.94;5030628;28;20104;-64
2024/01/23 04:01:03;;;;;;;20.73;3.55;;;;;;;8.02;83.79;101530.25;5047900;28;20025;-64
2024/01/23 04:03:28;;;;;;;17.92;3.65;;;;;;;8.08;83.34;101521.72;5049823;28;20033;-64
2024/01/23 04:05:54;;;;;;;20.40;4.47;;;;;;;8.14;82.30;101514.97;5055257;28;20202;-64
2024/01/23 04:08:19;;;;;;;17.35;3.78;;;;;;;8.15;81.65;101515.84;5032302;28;20041;-64
2024/01/23 04:10:45;;;;;;;14.77;3.42;;;;;;;8.15;81.52;101527.00;5033924;28;20021;-64
2024/01/23 04:13:10;;;;;;;19.60;3.75;;;;;;;8.15;81.92;101537.31;5048675;28;20484;-64
2024/01/23 04:15:36;;;;;;;18.92;3.67;;;;;;;8.20;80.95;101538.22;5036253;28;20039;-64
2024/01/23 04:18:02;;;;;;;24.48;3.45;;;;;;;8.24;80.80;101541.72;5035193;28;20092;-63
2024/01/23 04:20:27;;;;;;;28.33;4.68;;;;;;;8.18;81.85;101546.78;5035851;28;20401;-64
2024/01/23 04:22:52;;;;;;;18.75;3.78;;;;;;;8.08;82.45;101568.94;5029704;28;20029;-64
2024/01/23 04:25:18;;;;;;;23.67;4.38;;;;;;;8.06;82.85;101586.09;5028288;28;20107;-64
2024/01/23 04:27:43;;;;;;;20.70;4.03;;;;;;;8.14;82.45;101576.75;5044819;28;20031;-64
2024/01/23 04:30:09;;;;;;;20.67;4.03;;;;;;;8.14;82.18;101604.22;5036994;28;20029;-64
2024/01/23 04:32:34;;;;;;;16.00;3.58;;;;;;;8.04;83.22;101616.09;5029575;28;20033;-64
2024/01/23 04:34:59;;;;;;;20.65;3.67;;;;;;;8.07;82.39;101623.00;5029328;28;20120;-64
2024/01/23 04:37:25;;;;;;;21.17;3.78;;;;;;;8.09;82.70;101616.16;5029794;28;20029;-64
2024/01/23 04:39:50;;;;;;;24.85;3.55;;;;;;;8.12;81.86;101598.19;5031357;28;20047;-64
2024/01/23 04:42:16;;;;;;;18.70;3.97;;;;;;;8.11;82.70;101606.75;5049416;28;20037;-64
2024/01/23 04:44:41;;;;;;;20.02;3.72;;;;;;;8.00;83.65;101635.78;5049144;28;20029;-64
2024/01/23 04:47:07;;;;;;;21.10;3.50;;;;;;;8.02;83.03;101639.25;5048313;28;20037;-63
2024/01/23 04:49:32;;;;;;;18.30;3.60;;;;;;;8.07;83.28;101651.34;5029477;28;20029;-64
2024/01/23 04:51:58;;;;;;;18.30;3.60;;;;;;;8.04;83.39;101656.44;5046467;28;20499;-64
2024/01/23 04:54:23;;;;;;;14.85;3.60;;;;;;;8.03;83.32;101647.84;5055459;28;20053;-64
2024/01/23 04:56:49;;;;;;;23.50;4.22;;;;;;;8.02;83.74;101675.28;5040286;28;20546;-65
2024/01/23 04:59:14;;;;;;;17.20;3.50;;;;;;;8.05;83.99;101676.16;5031642;28;20115;-64
2024/01/23 05:01:40;;;;;;;25.23;4.15;;;;;;;7.99;84.15;101687.25;5049442;28;20490;-64
2024/01/23 05:04:05;;;;;;;23.38;4.00;;;;;;;7.90;84.26;101687.06;5048569;28;20171;-64
2024/01/23 05:06:30;;;;;;;19.73;4.20;;;;;;;7.92;83.78;101680.28;5047909;28;20040;-64
2024/01/23 05:08:56;;;;;;;24.58;3.95;;;;;;;7.83;84.89;101708.41;5039642;28;20029;-64
2024/01/23 05:11:21;;;;;;;24.65;4.25;;;;;;;7.74;85.13;101721.13;5035359;28;20126;-64
2024/01/23 05:13:47;;;;;;;20.58;4.82;;;;;;;7.70;84.30;101727.91;5049473;28;20030;-64
2024/01/23 05:16:12;;;;;;;17.20;3.38;;;;;;;7.70;83.97;101717.63;5021593;28;20045;-63
2024/01/23 05:18:38;;;;;;;17.58;3.65;;;;;;;7.64;84.54;101726.94;5037993;28;20080;-64
2024/01/23 05:21:03;;;;;;;19.25;3.90;;;;;;;7.46;85.60;101742.88;5031118;28;20575;-64
2024/01/23 05:23:29;;;;;;;21.75;3.58;;;;;;;7.34;85.94;101768.34;5028348;28;20045;-64
2024/01/23 05:25:54;;;;;;;17.35;4.22;;;;;;;7.24;86.58;101777.56;5027238;28;20043;-64
2024/01/23 05:28:19;;;;;;;22.00;3.60;;;;;;;7.11;87.24;101783.28;5042422;28;20159;-64
2024/01/23 05:30:45;;;;;;;23.52;4.95;;;;;;;7.13;87.07;101786.72;5026982;28;20052;-64
2024/01/23 05:33:10;;;;;;;25.88;4.13;;;;;;;7.10;87.25;101793.50;5027898;28;20518;-64
2024/01/23 05:35:36;;;;;;;23.17;4.97;;;;;;;7.03;87.56;101805.34;5034299;28;20448;-64
2024/01/23 05:38:01;;;;;;;20.13;3.78;;;;;;;6.99;87.83;101825.81;5047424;28;20556;-65
2024/01/23 05:40:26;;;;;;;17.13;3.60;;;;;;;6.99;87.87;101834.41;5030603;28;20017;-64
2024/01/23 05:42:52;;;;;;;17.60;3.38;;;;;;;6.94;87.97;101846.28;5053247;28;20033;-64
2024/01/23 05:45:17;;;;;;;24.55;4.47;;;;;;;6.94;87.62;101847.97;5048562;28;20309;-65
2024/01/23 05:47:42;;;;;;;17.13;3.40;;;;;;;6.86;88.43;101858.94;5026845;28;20393;-65
2024/01/23 05:50:08;;;;;;;19.48;3.22;;;;;;;6.81;88.69;101867.38;5029664;28;20033;-64
2024/01/23 05:52:33;;;;;;;16.95;3.60;;;;;;;6.82;88.21;101859.69;5051353;28;20510;-65
2024/01/23 05:55:00;;;;;;;18.05;3.75;;;;;;;6.77;88.68;101880.97;5051145;28;20032;-65
2024/01/23 05:57:26;;;;;;;16.45;3.30;;;;;;;6.75;89.53;101886.06;5034521;28;20025;-63
2024/01/23 05:59:51;;;;;;;18.85;3.75;;;;;;;6.81;88.70;101888.81;5035413;28;20036;-64
2024/01/23 06:02:17;;;;;;;24.48;3.78;;;;;;;6.74;89.28;101894.59;5047575;28;20040;-64
2024/01/23 06:04:42;;;;;;;25.08;4.40;;;;;;;6.74;89.48;101906.56;5063956;28;20036;-65
2024/01/23 06:07:08;;;;;;;24.98;4.07;;;;;;;6.75;88.89;101904.06;5046829;28;20037;-64
2024/01/23 06:09:33;;;;;;;21.83;4.75;;;;;;;6.72;89.27;101909.13;5032836;28;20030;-64
2024/01/23 06:11:59;;;;;;;18.00;3.10;;;;;;;6.63;89.77;101926.88;5040092;28;20025;-65
2024/01/23 06:14:24;;;;;;;15.05;3.88;;;;;;;6.61;90.40;101925.97;5043766;28;20124;-65
2024/01/23 06:16:50;;;;;;;21.70;3.45;;;;;;;6.65;89.66;101917.50;5028356;28;20077;-64
2024/01/23 06:19:16;;;;;;;26.20;4.05;;;;;;;6.57;90.22;101928.41;5034569;28;20041;-65
2024/01/23 06:21:42;;;;;;;19.45;3.45;;;;;;;6.53;90.34;101926.56;5027637;28;20044;-64
2024/01/23 06:24:07;;;;;;;22.42;4.35;;;;;;;6.69;89.16;101908.19;5027391;28;20117;-64
2024/01/23 06:26:33;;;;;;;21.70;5.07;;;;;;;6.60;90.03;101928.47;5031677;28;20086;-65
2024/01/23 06:28:58;;;;;;;19.08;3.20;;;;;;;6.67;89.22;101928.69;5046212;28;20064;-64
2024/01/23 06:31:26;;;;;;;15.77;2.97;;;;;;;6.66;89.16;101919.25;5027406;28;20025;-64
2024/01/23 06:33:55;;;;;;;14.52;2.75;;;;;;;6.52;90.03;101933.44;5022277;28;20043;-64
2024/01/23 06:36:21;;;;;;;17.77;3.97;;;;;;;6.60;89.30;101918.22;5026813;28;20505;-65
2024/01/23 06:38:46;;;;;;;16.67;3.10;;;;;;;6.59;88.91;101922.47;5027514;28;20029;-64
2024/01/23 06:41:12;;;;;;;18.73;3.70;;;;;;;6.47;89.85;101950.41;5029605;28;20037;-64
2024/01/23 06:43:37;;;;;;;21.73;4.03;;;;;;;6.48;89.54;101938.44;5047630;28;20223;-64
2024/01/23 06:46:03;;;;;;;19.70;3.88;;;;;;;6.40;90.20;101952.78;5044738;28;20021;-66
2024/01/23 06:48:29;;;;;;;16.15;3.45;;;;;;;6.51;89.51;101941.09;5027033;28;20041;-67
2024/01/23 06:50:55;;;;;;;25.95;4.53;;;;;;;6.57;89.12;101936.09;5027009;28;20670;-67
2024/01/23 06:53:20;;;;;;;19.83;3.92;;;;;;;6.53;89.65;101952.25;5037898;28;20033;-64
2024/01/23 06:55:46;;;;;;;19.70;3.47;;;;;;;6.54;88.86;101948.88;5047569;28;20036;-64
2024/01/23 06:58:11;;;;;;;22.13;4.22;;;;;;;6.63;88.66;101942.28;5046519;28;20029;-64
2024/01/23 07:00:37;;;;;;;25.30;3.50;;;;;;;6.63;88.83;101946.53;5045788;28;20032;-69
2024/01/23 07:03:02;;;;;;;19.80;3.55;;;;;;;6.54;89.13;101959.16;5037271;28;20116;-66
2024/01/23 07:05:28;;;;;;;16.80;3.22;;;;;;;6.50;89.35;101972.72;5031874;28;20033;-64
2024/01/23 07:07:54;;;;;;;22.17;3.95;;;;;;;6.60;89.19;101959.31;5047339;28;20064;-64
2024/01/23 07:10:19;;;;;;;19.90;3.53;;;;;;;6.62;88.91;101963.66;5027077;28;20656;-64
2024/01/23 07:12:45;;;;;;;15.45;2.80;;;;;;;6.72;88.22;101962.22;5026958;28;20040;-64
2024/01/23 07:15:10;;;;;;;16.38;2.90;;;;;;;6.66;88.65;101972.31;5038086;28;20048;-65
2024/01/23 07:17:35;;;;;;;18.85;3.45;;;;;;;6.66;88.12;101983.47;5046550;28;20029;-65
2024/01/23 07:20:01;;;;;;;16.48;3.28;;;;;;;6.49;89.08;102002.69;5048030;28;20032;-66
2024/01/23 07:22:26;;;;;;;18.20;3.30;;;;;;;6.44;89.71;102009.38;5032902;28;20504;-64
2024/01/23 07:24:51;;;;;;;13.82;3.25;;;;;;;6.40;90.02;102019.53;5032768;28;20045;-66
2024/01/23 07:27:19;;;;;;;22.65;3.85;;;;;;;6.33;90.60;102026.19;5030421;28;20170;-64
2024/01/23 07:29:45;;;;;;;15.48;2.78;;;;;;;6.36;90.51;102016.00;5037518;28;20043;-63
2024/01/23 07:32:11;;;;;;;24.02;4.63;;;;;;;6.33;91.22;102029.63;5047576;28;20104;-64
2024/01/23 07:34:36;;;;;;;20.48;3.72;;;;;;;6.23;91.53;102042.13;5031249;28;20075;-64
2024/01/23 07:37:01;;;;;;;18.33;3.70;;;;;;;6.18;91.60;102038.56;5031390;28;20140;-64
2024/01/23 07:39:28;;;;;;;21.02;3.58;;;;;;;6.22;91.60;102033.59;5030005;28;20068;-65
2024/01/23 07:41:53;;;;;;;26.67;4.88;;;;;;;6.24;91.57;102042.22;5030524;28;20083;-64
2024/01/23 07:44:19;;;;;;;11.88;3.10;;;;;;;6.35;91.07;102033.09;5034208;28;20504;-65
2024/01/23 07:46:47;;;;;;;13.57;3.38;;;;;;;6.32;90.98;102027.88;5050936;28;20029;-64
2024/01/23 07:49:13;;;;;;;19.27;3.70;;;;;;;6.29;91.45;102040.63;5030216;28;20022;-64
2024/01/23 07:51:45;;;;;;;18.95;3.58;;;;;;;6.32;91.80;102035.59;5030288;28;20040;-64
2024/01/23 07:54:10;;;;;;;13.85;3.08;;;;;;;6.36;91.62;102033.97;5047255;28;20049;-66
2024/01/23 07:56:36;;;;;;;26.17;4.82;;;;;;;6.28;92.27;102040.59;5037265;28;20488;-64
2024/01/23 07:59:02;;;;;;;17.77;4.25;;;;;;;6.23;92.37;102040.44;5030080;28;20112;-65
2024/01/23 08:01:27;;;;;;;19.77;3.70;;;;;;;6.31;92.40;102041.56;5021181;28;20025;-66
2024/01/23 08:03:53;;;;;;;18.80;3.70;;;;;;;6.24;92.51;102060.19;5045830;28;20057;-66
2024/01/23 08:06:18;;;;;;;17.80;3.70;;;;;;;6.26;92.48;102061.09;5037351;28;20041;-64
2024/01/23 08:08:44;;;;;;;17.98;3.65;;;;;;;6.23;92.92;102065.25;5028560;28;20037;-65
2024/01/23 08:11:14;;;;;;;19.05;3.83;;;;;;;6.28;92.36;102067.16;5035597;28;20030;-64
2024/01/23 08:13:39;;;;;;;17.85;4.13;;;;;;;6.23;92.55;102081.53;5056989;28;20029;-64
2024/01/23 08:16:08;;;;;;;15.18;3.60;;;;;;;6.38;91.84;102073.41;5031569;28;20084;-65
2024/01/23 08:18:34;;;;;;;20.58;3.70;;;;;;;6.49;90.92;102071.16;5032388;28;20060;-66
2024/01/23 08:20:59;;;;;;;14.68;3.28;;;;;;;6.47;91.15;102072.84;5032835;28;20069;-64
2024/01/23 08:23:25;;;;;;;18.05;3.45;;;;;;;6.44;91.61;102085.59;5029598;28;20582;-64
2024/01/23 08:25:50;;;;;;;18.27;4.00;;;;;;;6.55;90.72;102064.53;5028232;28;20029;-64
2024/01/23 08:28:16;;;;;;;21.23;4.15;;;;;;;6.52;90.97;102081.53;5029604;28;20039;-64
2024/01/23 08:30:42;;;;;;;15.15;3.10;;;;;;;6.62;90.47;102068.09;5028913;28;20116;-65
2024/01/23 08:33:08;;;;;;;21.63;3.55;;;;;;;6.63;90.30;102069.84;5030263;28;20029;-64
2024/01/23 08:35:33;;;;;;;23.67;4.45;;;;;;;6.63;90.52;102073.31;5029926;28;20033;-66
2024/01/23 08:37:58;;;;;;;20.48;3.67;;;;;;;6.66;90.58;102069.94;5029282;28;20028;-64
2024/01/23 08:40:24;;;;;;;21.15;3.55;;;;;;;6.68;90.44;102071.72;5029409;28;20029;-64
2024/01/23 08:42:49;;;;;;;12.68;3.60;;;;;;;6.70;90.41;102069.22;5029442;28;20050;-64
2024/01/23 08:45:15;;;;;;;22.13;3.55;;;;;;;6.83;89.09;102059.31;5028615;28;20057;-64
2024/01/23 08:47:40;;;;;;;23.35;4.13;;;;;;;6.84;89.40;102061.06;5030492;28;20025;-64
2024/01/23 08:50:06;;;;;;;28.42;4.07;;;;;;;6.88;89.09;102068.00;5031122;28;20025;-64
2024/01/23 08:52:31;;;;;;;21.38;3.95;;;;;;;6.87;89.46;102081.69;5052250;28;20025;-63
2024/01/23 08:54:57;;;;;;;18.27;3.90;;;;;;;6.94;89.03;102074.16;5053087;28;20083;-63
2024/01/23 08:57:24;;;;;;;14.25;3.45;;;;;;;6.94;88.76;102084.44;5048854;28;20044;-64
2024/01/23 08:59:49;;;;;;;18.60;4.20;;;;;;;6.98;89.18;102086.25;5049761;28;20075;-63
2024/01/23 09:02:14;;;;;;;15.98;3.05;;;;;;;7.01;88.62;102086.34;5048667;28;20056;-63
2024/01/23 09:04:40;;;;;;;21.98;3.70;;;;;;;7.14;88.24;102073.88;5037891;28;20036;-63
2024/01/23 09:07:05;;;;;;;12.80;3.55;;;;;;;7.27;87.08;102060.50;5057490;28;20026;-63
2024/01/23 09:09:31;;;;;;;16.45;3.80;;;;;;;7.23;87.42;102081.84;5028768;28;20052;-65
2024/01/23 09:11:56;;;;;;;16.25;3.90;;;;;;;7.24;88.07;102093.00;5041171;28;20381;-63
2024/01/23 09:14:22;;;;;;;18.23;3.42;;;;;;;7.27;87.68;102098.22;5045486;28;20033;-62
2024/01/23 09:16:47;;;;;;;19.00;3.83;;;;;;;7.31;87.50;102087.19;5031700;28;20021;-62
2024/01/23 09:19:13;;;;;;;16.50;4.97;;;;;;;7.37;86.92;102083.06;5031163;28;20025;-64
2024/01/23 09:21:39;;;;;;;20.08;3.60;;;;;;;7.36;87.33;102101.91;5028391;28;20416;-62
2024/01/23 09:24:05;;;;;;;24.25;4.50;;;;;;;7.37;87.64;102098.50;5049601;28;20509;-62
2024/01/23 09:26:31;;;;;;;17.20;4.15;;;;;;;7.42;87.20;102093.47;5033557;28;20499;-62
2024/01/23 09:28:56;;;;;;;19.15;4.35;;;;;;;7.50;86.99;102083.38;5044043;28;20041;-62
2024/01/23 09:31:22;;;;;;;18.75;4.15;;;;;;;7.55;86.55;102092.94;5036668;28;20049;-62
2024/01/23 09:33:48;;;;;;;24.27;4.63;;;;;;;7.60;86.80;102096.50;5044174;28;20075;-62
2024/01/23 09:36:14;;;;;;;19.00;4.82;;;;;;;7.67;85.90;102093.25;5048052;28;20472;-63
2024/01/23 09:38:39;;;;;;;24.30;3.90;;;;;;;7.73;85.16;102088.25;5048179;28;20061;-62
2024/01/23 09:41:11;;;;;;;18.25;3.78;;;;;;;7.82;84.82;102080.75;5048117;28;20048;-62
2024/01/23 09:43:40;;;;;;;15.90;3.85;;;;;;;7.88;85.18;102086.06;5029622;28;20021;-62
2024/01/23 09:46:11;;;;;;;21.02;4.28;;;;;;;7.91;84.88;102086.13;5053563;28;20025;-62
2024/01/23 09:48:37;;;;;;;27.30;4.63;;;;;;;7.94;85.31;102082.75;5033717;28;20080;-62
2024/01/23 09:51:03;;;;;;;14.13;3.80;;;;;;;8.01;84.41;102074.34;5037351;28;20029;-62
2024/01/23 09:53:29;;;;;;;18.20;4.53;;;;;;;8.04;83.57;102058.09;5046743;28;20044;-62
2024/01/23 09:55:54;;;;;;;24.58;4.55;;;;;;;8.10;84.11;102069.38;5047678;28;20048;-63
2024/01/23 09:58:20;;;;;;;18.13;3.90;;;;;;;8.13;83.79;102060.88;5028550;28;20091;-63
2024/01/23 10:00:46;;;;;;;17.15;3.58;;;;;;;8.17;83.15;102063.53;5026296;28;20481;-62
2024/01/23 10:03:13;;;;;;;22.98;3.88;;;;;;;8.24;82.82;102046.50;5039660;28;20044;-63
2024/01/23 10:05:39;;;;;;;20.23;4.38;;;;;;;8.30;82.21;102036.34;5040578;28;20040;-64
2024/01/23 10:08:04;;;;;;;20.65;3.70;;;;;;;8.37;81.92;102035.63;5029945;28;20025;-63
2024/01/23 10:10:30;;;;;;;14.65;3.22;;;;;;;8.41;82.16;102037.44;5048631;28;20655;-64
2024/01/23 10:12:55;;;;;;;19.02;4.07;;;;;;;8.48;81.12;102023.84;5050802;28;20051;-64
2024/01/23 10:15:22;;;;;;;23.13;4.15;;;;;;;8.52;80.42;102029.06;5056403;28;20045;-63
2024/01/23 10:17:48;;;;;;;18.92;3.95;;;;;;;8.58;80.18;102033.47;5032005;28;20034;-64
2024/01/23 10:20:14;;;;;;;25.55;4.28;;;;;;;8.65;80.06;102021.59;5029599;28;20033;-64
2024/01/23 10:22:39;;;;;;;18.90;4.07;;;;;;;8.68;79.79;102009.63;5048347;28;20577;-63
2024/01/23 10:25:20;;;;;;;19.40;4.22;;;;;;;8.74;79.49;102014.03;5025118;28;20504;-63
2024/01/23 10:27:50;;;;;;;22.98;3.83;;;;;;;8.79;78.78;101997.81;5043272;28;20048;-63
2024/01/23 10:30:16;;;;;;;20.02;4.10;;;;;;;8.82;78.06;101997.00;5036137;28;20034;-64
2024/01/23 10:32:42;;;;;;;22.65;5.13;;;;;;;8.81;78.39;101996.13;5027215;28;20041;-64
2024/01/23 10:35:11;;;;;;;18.02;4.03;;;;;;;8.95;76.38;101981.78;5027947;28;20029;-63
2024/01/23 10:37:36;;;;;;;23.02;4.32;;;;;;;8.95;76.31;101989.53;5028105;28;20064;-63
2024/01/23 10:40:03;;;;;;;19.58;4.30;;;;;;;8.83;76.33;102004.78;5027837;28;20076;-64
2024/01/23 10:42:29;;;;;;;16.88;3.72;;;;;;;8.89;76.21;102002.31;5040401;28;20037;-64
2024/01/23 10:44:54;;;;;;;21.38;3.60;;;;;;;8.93;75.88;102009.22;5035702;28;20053;-64
2024/01/23 10:47:20;;;;;;;20.77;3.83;;;;;;;9.00;76.50;101998.19;5036762;28;20092;-64
2024/01/23 10:49:46;;;;;;;17.55;3.47;;;;;;;8.92;76.36;101998.91;5027734;28;20083;-63
2024/01/23 10:52:20;;;;;;;22.98;3.83;;;;;;;8.89;76.11;101994.56;5027412;28;20030;-63
2024/01/23 10:54:47;;;;;;;16.05;3.20;;;;;;;8.91;76.55;102020.38;5050427;28;20029;-63
2024/01/23 10:57:24;;;;;;;19.08;3.85;;;;;;;8.90;74.89;101983.38;5040148;28;20133;-64
2024/01/23 10:59:50;;;;;;;24.48;4.28;;;;;;;8.92;75.47;101989.47;5027112;28;20065;-64
2024/01/23 11:02:18;;;;;;;15.80;3.55;;;;;;;8.99;75.09;101980.13;5034762;28;20060;-61
2024/01/23 11:04:43;;;;;;;22.38;4.05;;;;;;;9.09;74.58;101982.88;5052559;28;20024;-62
2024/01/23 11:07:35;;;;;;;18.52;3.55;;;;;;;9.23;74.81;101979.69;5032380;28;20040;-63
2024/01/23 11:10:21;;;;;;;22.58;4.80;;;;;;;9.31;74.80;101976.38;5010604;28;20034;-66
2024/01/23 11:13:17;;;;;;;15.32;3.40;;;;;;;9.38;74.40;101977.31;5048500;28;20041;-62
2024/01/23 11:15:43;;;;;;;16.00;3.80;;;;;;;9.49;73.51;101963.75;5036703;28;20064;-59
2024/01/23 11:18:28;;;;;;;18.45;4.25;;;;;;;9.63;73.10;101943.34;5031156;28;20516;-60